createdAt,value
2023-02-27T00:03:17.306Z,3.00
2023-02-27T00:08:18.911Z,3.97
2023-02-27T00:13:20.688Z,3.35
2023-02-27T00:18:22.869Z,1.92
2023-02-27T00:23:24.543Z,4.55
2023-02-27T00:28:26.286Z,3.83
2023-02-27T00:33:28.039Z,2.90
2023-02-27T00:38:30.124Z,1.52
2023-02-27T00:43:32.703Z,2.67
2023-02-27T00:48:34.318Z,4.43
2023-02-27T00:53:36.485Z,2.33
2023-02-27T00:58:38.119Z,2.00
2023-02-27T01:03:39.788Z,3.25
2023-02-27T01:08:41.442Z,2.97
2023-02-27T01:13:44.286Z,4.20
2023-02-27T01:18:45.954Z,5.40
2023-02-27T01:23:47.648Z,3.08
2023-02-27T01:28:49.396Z,1.60
2023-02-27T01:33:51.262Z,1.83
2023-02-27T01:38:53.147Z,2.28
2023-02-27T01:44:03.541Z,3.40
2023-02-27T01:49:34.658Z,3.55
2023-02-27T01:54:39.937Z,2.78
2023-02-27T01:59:42.505Z,1.92
2023-02-27T02:04:46.364Z,3.25
2023-02-27T02:09:57.976Z,3.42
2023-02-27T02:14:59.890Z,3.50
2023-02-27T02:20:17.765Z,3.22
2023-02-27T02:25:37.778Z,2.42
2023-02-27T02:31:14.797Z,3.83
2023-02-27T02:36:17.539Z,3.33
2023-02-27T02:41:28.271Z,4.38
2023-02-27T02:46:42.640Z,3.00
2023-02-27T02:51:55.283Z,4.20
2023-02-27T02:56:59.473Z,3.47
2023-02-27T03:02:04.447Z,4.05
2023-02-27T03:07:21.347Z,3.45
2023-02-27T03:12:24.783Z,4.28
2023-02-27T03:17:44.842Z,4.85
2023-02-27T03:22:48.359Z,3.80
2023-02-27T03:28:01.653Z,4.05
2023-02-27T03:33:14.060Z,2.42
2023-02-27T03:44:09.244Z,2.65
2023-02-27T03:49:11.056Z,3.33
2023-02-27T03:54:15.318Z,3.50
2023-02-27T03:59:17.493Z,4.22
2023-02-27T04:10:26.671Z,3.58
2023-02-27T04:15:49.956Z,4.00
2023-02-27T04:21:15.324Z,3.35
2023-02-27T04:26:33.542Z,2.35
2023-02-27T04:31:42.243Z,4.38
2023-02-27T04:37:01.413Z,3.88
2023-02-27T04:42:06.891Z,3.15
2023-02-27T04:47:10.493Z,3.80
2023-02-27T04:52:20.147Z,4.05
2023-02-27T04:57:30.185Z,3.60
2023-02-27T05:02:35.907Z,3.30
2023-02-27T05:07:46.393Z,2.50
2023-02-27T05:12:51.896Z,4.53
2023-02-27T05:17:56.794Z,2.20
2023-02-27T05:23:37.460Z,4.22
2023-02-27T05:28:48.468Z,2.22
2023-02-27T05:34:13.249Z,4.22
2023-02-27T05:39:15.290Z,3.28
2023-02-27T05:44:22.929Z,4.97
2023-02-27T05:54:44.850Z,2.78
2023-02-27T06:00:03.129Z,3.65
2023-02-27T06:05:18.353Z,3.55
2023-02-27T06:10:21.075Z,4.15
2023-02-27T06:15:23.118Z,3.42
2023-02-27T06:20:24.741Z,3.17
2023-02-27T06:25:26.629Z,4.05
2023-02-27T06:30:28.494Z,4.57
2023-02-27T06:35:30.643Z,3.28
2023-02-27T06:40:32.324Z,3.33
2023-02-27T06:45:34.099Z,3.83
2023-02-27T06:50:35.876Z,2.85
2023-02-27T06:55:38.408Z,3.83
2023-02-27T07:00:40.044Z,4.22
2023-02-27T07:05:42.057Z,3.38
2023-02-27T07:10:49.191Z,2.50
2023-02-27T07:15:52.306Z,1.75
2023-02-27T07:20:55.264Z,3.58
2023-02-27T07:25:57.015Z,2.28
2023-02-27T07:30:58.839Z,4.05
2023-02-27T07:36:00.570Z,3.65
2023-02-27T07:41:03.262Z,2.78
2023-02-27T07:46:05.208Z,2.35
2023-02-27T07:51:07.004Z,2.58
2023-02-27T07:56:08.790Z,3.63
2023-02-27T08:01:10.721Z,3.28
2023-02-27T08:06:12.373Z,3.75
2023-02-27T08:11:14.072Z,3.50
2023-02-27T08:16:16.082Z,2.40
2023-02-27T08:21:17.781Z,4.18
2023-02-27T08:26:19.427Z,2.92
2023-02-27T08:31:21.192Z,3.47
2023-02-27T08:36:22.890Z,3.60
2023-02-27T08:41:24.595Z,3.58
2023-02-27T08:46:26.815Z,2.55
2023-02-27T08:51:29.175Z,4.07
2023-02-27T08:56:31.535Z,2.63
2023-02-27T09:01:34.456Z,3.03
2023-02-27T09:06:36.895Z,3.70
2023-02-27T09:11:38.932Z,2.40
2023-02-27T09:16:40.668Z,4.00
2023-02-27T09:21:42.620Z,2.88
2023-02-27T09:26:46.470Z,2.75
2023-02-27T09:31:48.515Z,2.95
2023-02-27T09:36:50.272Z,2.85
2023-02-27T09:42:19.488Z,3.10
2023-02-27T09:47:41.189Z,1.90
2023-02-27T09:52:42.797Z,2.22
2023-02-27T09:57:49.880Z,2.47
2023-02-27T10:03:12.981Z,2.00
2023-02-27T10:08:56.017Z,2.35
2023-02-27T10:14:19.040Z,2.00
2023-02-27T10:19:27.484Z,2.38
2023-02-27T10:24:35.827Z,2.92
2023-02-27T10:29:41.816Z,2.10
2023-02-27T10:34:45.110Z,2.17
2023-02-27T10:39:58.840Z,2.17
2023-02-27T10:45:00.509Z,2.58
2023-02-27T10:50:02.140Z,1.92
2023-02-27T10:55:19.271Z,2.15
2023-02-27T11:00:46.858Z,2.38
2023-02-27T11:06:00.535Z,2.17
2023-02-27T11:11:10.730Z,2.83
2023-02-27T11:16:18.265Z,2.00
2023-02-27T11:21:29.146Z,3.35
2023-02-27T11:26:34.220Z,2.60
2023-02-27T11:31:37.154Z,3.30
2023-02-27T11:36:40.385Z,1.58
2023-02-27T11:41:44.891Z,1.58
2023-02-27T11:46:48.715Z,2.75
2023-02-27T11:51:59.444Z,1.50
2023-02-27T11:57:04.777Z,1.65
2023-02-27T12:02:18.237Z,2.03
2023-02-27T12:07:41.962Z,2.67
2023-02-27T12:13:03.434Z,2.08
2023-02-27T12:18:11.296Z,1.95
2023-02-27T12:23:23.751Z,2.00
2023-02-27T12:28:37.602Z,2.80
2023-02-27T12:33:41.507Z,1.95
2023-02-27T12:38:43.368Z,2.03
2023-02-27T12:43:53.389Z,1.98
2023-02-27T12:49:19.035Z,2.90
2023-02-27T12:54:30.782Z,2.08
2023-02-27T12:59:59.078Z,2.05
2023-02-27T13:05:00.749Z,1.80
2023-02-27T13:10:14.263Z,2.03
2023-02-27T13:15:20.135Z,1.90
2023-02-27T13:20:21.715Z,2.05
2023-02-27T13:25:23.928Z,2.42
2023-02-27T13:30:34.014Z,2.05
2023-02-27T13:35:58.190Z,1.65
2023-02-27T13:41:18.722Z,1.10
2023-02-27T13:46:28.899Z,1.67
2023-02-27T13:51:36.462Z,0.45
2023-02-27T13:56:38.090Z,0.85
2023-02-27T14:01:39.930Z,0.85
2023-02-27T14:06:45.874Z,0.40
2023-02-27T14:11:54.385Z,1.40
2023-02-27T14:16:56.733Z,0.45
2023-02-27T14:22:10.718Z,0.32
2023-02-27T14:27:26.499Z,0.80
2023-02-27T14:32:34.472Z,0.40
2023-02-27T14:37:36.425Z,0.52
2023-02-27T14:43:05.727Z,0.30
2023-02-27T14:48:09.891Z,0.60
2023-02-27T14:53:23.697Z,0.32
2023-02-27T14:58:26.013Z,1.55
2023-02-27T15:03:46.374Z,0.55
2023-02-27T15:08:50.431Z,0.38
2023-02-27T15:14:01.508Z,0.52
2023-02-27T15:19:15.454Z,1.00
2023-02-27T15:24:23.214Z,0.40
2023-02-27T15:29:30.512Z,0.98
2023-02-27T15:34:33.887Z,0.35
2023-02-27T15:39:35.683Z,0.70
2023-02-27T15:44:42.647Z,0.82
2023-02-27T15:49:46.399Z,1.15
2023-02-27T15:55:15.760Z,1.77
2023-02-27T16:00:18.739Z,2.40
2023-02-27T16:05:28.021Z,1.58
2023-02-27T16:10:35.475Z,1.70
2023-02-27T16:15:38.885Z,1.13
2023-02-27T16:20:44.752Z,1.13
2023-02-27T16:26:23.485Z,1.42
2023-02-27T16:31:26.772Z,2.65
2023-02-27T16:36:30.744Z,2.08
2023-02-27T16:41:32.717Z,1.20
2023-02-27T16:46:34.814Z,2.22
2023-02-27T16:51:36.452Z,1.40
2023-02-27T16:56:38.998Z,3.50
2023-02-27T17:01:40.783Z,2.35
2023-02-27T17:06:42.446Z,1.48
2023-02-27T17:11:44.203Z,1.83
2023-02-27T17:16:47.437Z,3.60
2023-02-27T17:21:49.618Z,10.95
2023-02-27T17:26:52.543Z,3.33
2023-02-27T17:31:54.736Z,3.08
2023-02-27T17:36:56.430Z,3.42
2023-02-27T17:41:58.197Z,3.35
2023-02-27T17:46:59.886Z,2.28
2023-02-27T17:52:01.528Z,4.68
2023-02-27T17:57:07.945Z,3.70
2023-02-27T18:02:11.592Z,3.25
2023-02-27T18:07:16.310Z,3.50
2023-02-27T18:12:18.225Z,2.38
2023-02-27T18:17:19.946Z,2.40
2023-02-27T18:22:22.150Z,3.53
2023-02-27T18:27:23.806Z,3.50
2023-02-27T18:32:25.570Z,3.13
2023-02-27T18:37:27.490Z,2.65
2023-02-27T18:42:29.245Z,5.10
2023-02-27T18:47:30.970Z,4.25
2023-02-27T18:52:35.081Z,5.43
2023-02-27T18:57:37.880Z,4.68
2023-02-27T19:02:41.741Z,5.20
2023-02-27T19:07:43.656Z,4.00
2023-02-27T19:12:45.404Z,4.38
2023-02-27T19:17:47.090Z,4.43
2023-02-27T19:22:49.145Z,3.53
2023-02-27T19:27:54.748Z,4.85
2023-02-27T19:32:56.492Z,3.50
2023-02-27T19:37:59.155Z,4.03
2023-02-27T19:43:00.778Z,3.88
2023-02-27T19:48:02.479Z,2.22
2023-02-27T19:53:04.593Z,2.30
2023-02-27T19:58:06.300Z,3.58
2023-02-27T20:03:08.140Z,2.30
2023-02-27T20:08:09.793Z,3.20
2023-02-27T20:13:11.432Z,5.40
2023-02-27T20:18:13.112Z,2.95
2023-02-27T20:23:15.766Z,2.60
2023-02-27T20:28:17.368Z,3.22
2023-02-27T20:33:18.988Z,4.20
2023-02-27T20:38:22.681Z,2.53
2023-02-27T20:43:24.343Z,2.83
2023-02-27T20:48:25.960Z,6.20
2023-02-27T20:53:27.557Z,3.63
2023-02-27T20:58:29.308Z,4.13
2023-02-27T21:03:38.576Z,3.17
2023-02-27T21:08:42.853Z,4.10
2023-02-27T21:13:46.033Z,3.05
2023-02-27T21:18:51.335Z,2.92
2023-02-27T21:23:53.129Z,4.53
2023-02-27T21:29:00.344Z,4.22
2023-02-27T21:34:03.559Z,3.10
2023-02-27T21:39:07.207Z,4.97
2023-02-27T21:44:09.828Z,4.40
2023-02-27T21:49:28.486Z,6.18
2023-02-27T21:54:30.161Z,6.53
2023-02-27T21:59:32.171Z,6.82
2023-02-27T22:04:33.809Z,6.18
2023-02-27T22:09:35.468Z,4.93
2023-02-27T22:14:37.104Z,4.55
2023-02-27T22:19:38.757Z,6.53
2023-02-27T22:24:42.113Z,5.72
2023-02-27T22:29:43.745Z,5.95
2023-02-27T22:34:45.375Z,5.47
2023-02-27T22:39:47.089Z,5.20
2023-02-27T22:44:48.753Z,5.82
2023-02-27T22:49:51.571Z,5.20
2023-02-27T22:54:53.658Z,6.82
2023-02-27T22:59:55.446Z,5.95
2023-02-27T23:04:57.075Z,7.60
2023-02-27T23:09:58.690Z,6.50
2023-02-27T23:15:00.363Z,6.18
2023-02-27T23:20:02.390Z,6.05
2023-02-27T23:25:07.205Z,4.38
2023-02-27T23:30:10.550Z,4.45
2023-02-27T23:35:12.989Z,4.63
2023-02-27T23:40:14.654Z,4.70
2023-02-27T23:45:22.901Z,4.72
2023-02-27T23:50:26.969Z,4.00
2023-02-27T23:55:30.431Z,4.05
